Archival Weather

Randolph Afb

Universal City, Texas (KRND)

Report from: Monday, September 26, 2022 10:55 AM CDT
Current time: Saturday, February 4, 2023 10:53 PM CST

Current weather
Weather history
Weather forecast

Temperature29.8°C (85.6°F)
Heat index28.6°C (83.5°F)
Dew point9.8°C (49.6°F)
Winds 15 kts (7.7 m/s, 17.3 mph) North (10°)
Wind gusts 19 kts (9.8 m/s, 21.9 mph)
Visibility10 mi. (16.1 km)
Clouds Sky clear
Altimeter30.07 in.Hg (1018 mB)
Relative humidity29 %
Density altitude1,703 ft. (519 m)
Sea-level pressure101.7 kPa (1017 mB, 30.04 in.Hg)
Remarks Fully automated report
Automated weather observing station with precipitation discriminator
Flight conditions Visual Meteorological Conditions
Raw dataKRND 261555Z AUTO 01015G19KT 10SM CLR 30/10 A3007 RMK AO2 SLP174 T02980098
An unhandled exception has occurred. See browser dev tools for details. Reload 🗙